Аэропорт: Борисполь. Киев

ICAO: UKBB

METAR:
2019-09-21 16:00:00
UKBB 211600Z 26003MPS 9999 -RA OVC049 13/M01 Q1018 R88/D NOSIG
METAR:
2019-09-21 11:01:00
TAF UKBB 211101Z 2112/2212 26006G12MPS 9999 BKN012 TEMPO 2112/2202 29009G14MPS 2100 -SHRA BKN006 SCT015CB TEMPO 2202/2212 30010G16MPS 2100 -SHRA BKN005 SCT015CB